sensor_id;sensor_type;location;lat;lon;timestamp;P1;durP1;ratioP1;P2;durP2;ratioP2
63193;SDS011;49289;51.670;5.624;2023-03-14T00:01:28;11.10;;;2.70;;
63193;SDS011;49289;51.670;5.624;2023-03-14T00:03:17;9.50;;;2.80;;
63193;SDS011;49289;51.670;5.624;2023-03-14T00:05:04;13.00;;;2.70;;
63193;SDS011;49289;51.670;5.624;2023-03-14T00:06:53;7.30;;;2.50;;
63193;SDS011;49289;51.670;5.624;2023-03-14T00:08:40;6.30;;;2.20;;
63193;SDS011;49289;51.670;5.624;2023-03-14T00:10:27;10.50;;;2.60;;
63193;SDS011;49289;51.670;5.624;2023-03-14T00:12:15;5.20;;;2.00;;
63193;SDS011;49289;51.670;5.624;2023-03-14T00:14:03;6.80;;;2.30;;
63193;SDS011;49289;51.670;5.624;2023-03-14T00:15:51;5.70;;;2.20;;
63193;SDS011;49289;51.670;5.624;2023-03-14T00:17:38;5.70;;;2.00;;
63193;SDS011;49289;51.670;5.624;2023-03-14T00:19:26;6.00;;;2.10;;
63193;SDS011;49289;51.670;5.624;2023-03-14T00:21:15;5.90;;;2.20;;
63193;SDS011;49289;51.670;5.624;2023-03-14T00:23:03;8.60;;;2.20;;
63193;SDS011;49289;51.670;5.624;2023-03-14T00:24:51;6.90;;;1.70;;
63193;SDS011;49289;51.670;5.624;2023-03-14T00:26:40;8.80;;;2.00;;
63193;SDS011;49289;51.670;5.624;2023-03-14T00:28:28;5.80;;;2.00;;
63193;SDS011;49289;51.670;5.624;2023-03-14T00:30:15;8.80;;;2.10;;
63193;SDS011;49289;51.670;5.624;2023-03-14T00:32:04;6.80;;;2.00;;
63193;SDS011;49289;51.670;5.624;2023-03-14T00:33:51;4.50;;;1.80;;
63193;SDS011;49289;51.670;5.624;2023-03-14T00:35:38;4.90;;;1.60;;
63193;SDS011;49289;51.670;5.624;2023-03-14T00:37:25;7.00;;;1.90;;
63193;SDS011;49289;51.670;5.624;2023-03-14T00:39:12;7.00;;;1.90;;
63193;SDS011;49289;51.670;5.624;2023-03-14T00:40:59;4.40;;;1.60;;
63193;SDS011;49289;51.670;5.624;2023-03-14T00:42:48;5.10;;;2.00;;
63193;SDS011;49289;51.670;5.624;2023-03-14T00:44:35;8.30;;;2.10;;
63193;SDS011;49289;51.670;5.624;2023-03-14T00:46:22;5.20;;;1.60;;
63193;SDS011;49289;51.670;5.624;2023-03-14T00:48:10;6.20;;;1.80;;
63193;SDS011;49289;51.670;5.624;2023-03-14T00:49:58;8.40;;;1.70;;
63193;SDS011;49289;51.670;5.624;2023-03-14T00:51:46;6.00;;;1.80;;
63193;SDS011;49289;51.670;5.624;2023-03-14T00:53:35;6.40;;;1.90;;
63193;SDS011;49289;51.670;5.624;2023-03-14T00:55:22;7.70;;;2.10;;
63193;SDS011;49289;51.670;5.624;2023-03-14T00:57:10;4.20;;;1.70;;
63193;SDS011;49289;51.670;5.624;2023-03-14T00:58:59;4.20;;;1.30;;
63193;SDS011;49289;51.670;5.624;2023-03-14T01:00:46;7.10;;;1.70;;
63193;SDS011;49289;51.670;5.624;2023-03-14T01:02:33;5.90;;;1.80;;
63193;SDS011;49289;51.670;5.624;2023-03-14T01:04:21;5.40;;;1.50;;
63193;SDS011;49289;51.670;5.624;2023-03-14T01:06:16;5.20;;;1.30;;
63193;SDS011;49289;51.670;5.624;2023-03-14T01:08:04;4.60;;;1.60;;
63193;SDS011;49289;51.670;5.624;2023-03-14T01:09:52;8.10;;;2.10;;
63193;SDS011;49289;51.670;5.624;2023-03-14T01:11:40;6.60;;;1.60;;
63193;SDS011;49289;51.670;5.624;2023-03-14T01:13:28;7.50;;;1.60;;
63193;SDS011;49289;51.670;5.624;2023-03-14T01:15:16;3.60;;;1.40;;
63193;SDS011;49289;51.670;5.624;2023-03-14T01:17:05;4.00;;;1.50;;
63193;SDS011;49289;51.670;5.624;2023-03-14T01:18:53;7.20;;;1.70;;
63193;SDS011;49289;51.670;5.624;2023-03-14T01:20:42;4.60;;;1.40;;
63193;SDS011;49289;51.670;5.624;2023-03-14T01:22:29;4.20;;;1.30;;
63193;SDS011;49289;51.670;5.624;2023-03-14T01:24:16;6.40;;;1.60;;
63193;SDS011;49289;51.670;5.624;2023-03-14T01:26:03;7.00;;;1.30;;
63193;SDS011;49289;51.670;5.624;2023-03-14T01:27:52;3.80;;;1.60;;
63193;SDS011;49289;51.670;5.624;2023-03-14T01:29:40;6.30;;;1.30;;
63193;SDS011;49289;51.670;5.624;2023-03-14T01:31:28;5.50;;;1.40;;
63193;SDS011;49289;51.670;5.624;2023-03-14T01:33:16;3.70;;;1.30;;
63193;SDS011;49289;51.670;5.624;2023-03-14T01:35:04;5.10;;;1.50;;
63193;SDS011;49289;51.670;5.624;2023-03-14T01:36:51;6.90;;;1.20;;
63193;SDS011;49289;51.670;5.624;2023-03-14T01:38:39;7.60;;;1.50;;
63193;SDS011;49289;51.670;5.624;2023-03-14T01:40:27;5.10;;;1.30;;
63193;SDS011;49289;51.670;5.624;2023-03-14T01:42:15;5.60;;;1.20;;
63193;SDS011;49289;51.670;5.624;2023-03-14T01:44:03;5.90;;;1.50;;
63193;SDS011;49289;51.670;5.624;2023-03-14T01:46:16;5.00;;;1.30;;
63193;SDS011;49289;51.670;5.624;2023-03-14T01:48:13;6.20;;;1.70;;
63193;SDS011;49289;51.670;5.624;2023-03-14T01:49:45;6.40;;;1.50;;
63193;SDS011;49289;51.670;5.624;2023-03-14T01:51:33;7.40;;;1.60;;
63193;SDS011;49289;51.670;5.624;2023-03-14T01:53:21;6.80;;;1.40;;
63193;SDS011;49289;51.670;5.624;2023-03-14T01:55:12;5.40;;;1.30;;
63193;SDS011;49289;51.670;5.624;2023-03-14T01:56:59;4.90;;;1.50;;
63193;SDS011;49289;51.670;5.624;2023-03-14T01:58:47;3.70;;;1.50;;
63193;SDS011;49289;51.670;5.624;2023-03-14T02:00:33;3.80;;;1.20;;
63193;SDS011;49289;51.670;5.624;2023-03-14T02:02:20;5.40;;;1.40;;
63193;SDS011;49289;51.670;5.624;2023-03-14T02:04:07;4.60;;;1.20;;
63193;SDS011;49289;51.670;5.624;2023-03-14T02:05:55;4.40;;;1.30;;
63193;SDS011;49289;51.670;5.624;2023-03-14T02:07:44;5.00;;;1.60;;
63193;SDS011;49289;51.670;5.624;2023-03-14T02:09:29;5.10;;;1.50;;
63193;SDS011;49289;51.670;5.624;2023-03-14T02:11:17;5.10;;;1.40;;
63193;SDS011;49289;51.670;5.624;2023-03-14T02:13:05;4.80;;;1.40;;
63193;SDS011;49289;51.670;5.624;2023-03-14T02:14:51;6.50;;;1.70;;
63193;SDS011;49289;51.670;5.624;2023-03-14T02:16:40;4.50;;;1.30;;
63193;SDS011;49289;51.670;5.624;2023-03-14T02:18:29;7.00;;;1.60;;
63193;SDS011;49289;51.670;5.624;2023-03-14T02:20:24;4.40;;;1.40;;
63193;SDS011;49289;51.670;5.624;2023-03-14T02:22:14;6.00;;;1.50;;
63193;SDS011;49289;51.670;5.624;2023-03-14T02:24:04;5.70;;;1.50;;
63193;SDS011;49289;51.670;5.624;2023-03-14T02:25:53;4.90;;;1.70;;
63193;SDS011;49289;51.670;5.624;2023-03-14T02:27:40;7.20;;;1.70;;
63193;SDS011;49289;51.670;5.624;2023-03-14T02:29:28;5.60;;;1.60;;
63193;SDS011;49289;51.670;5.624;2023-03-14T02:31:16;5.10;;;1.50;;
63193;SDS011;49289;51.670;5.624;2023-03-14T02:33:05;5.00;;;1.50;;
63193;SDS011;49289;51.670;5.624;2023-03-14T02:34:52;7.80;;;1.90;;
63193;SDS011;49289;51.670;5.624;2023-03-14T02:36:39;5.90;;;1.80;;
63193;SDS011;49289;51.670;5.624;2023-03-14T02:38:27;6.30;;;1.80;;
63193;SDS011;49289;51.670;5.624;2023-03-14T02:40:14;7.40;;;2.00;;
63193;SDS011;49289;51.670;5.624;2023-03-14T02:42:01;7.80;;;2.00;;
63193;SDS011;49289;51.670;5.624;2023-03-14T02:43:49;7.10;;;1.70;;
63193;SDS011;49289;51.670;5.624;2023-03-14T02:45:39;7.60;;;1.80;;
63193;SDS011;49289;51.670;5.624;2023-03-14T02:47:29;10.20;;;2.20;;
63193;SDS011;49289;51.670;5.624;2023-03-14T02:49:16;8.20;;;2.00;;
63193;SDS011;49289;51.670;5.624;2023-03-14T02:51:04;8.00;;;2.20;;
63193;SDS011;49289;51.670;5.624;2023-03-14T02:52:51;8.20;;;2.20;;
63193;SDS011;49289;51.670;5.624;2023-03-14T02:54:38;4.90;;;1.90;;
63193;SDS011;49289;51.670;5.624;2023-03-14T02:56:26;8.60;;;1.80;;
63193;SDS011;49289;51.670;5.624;2023-03-14T02:58:14;5.40;;;1.90;;
63193;SDS011;49289;51.670;5.624;2023-03-14T03:00:03;8.70;;;2.00;;
63193;SDS011;49289;51.670;5.624;2023-03-14T03:01:52;9.90;;;1.90;;
63193;SDS011;49289;51.670;5.624;2023-03-14T03:03:39;11.10;;;2.00;;
63193;SDS011;49289;51.670;5.624;2023-03-14T03:05:27;5.80;;;1.80;;
63193;SDS011;49289;51.670;5.624;2023-03-14T03:07:14;6.00;;;1.60;;
63193;SDS011;49289;51.670;5.624;2023-03-14T03:09:01;7.90;;;1.90;;
63193;SDS011;49289;51.670;5.624;2023-03-14T03:10:48;9.90;;;1.90;;
63193;SDS011;49289;51.670;5.624;2023-03-14T03:12:36;7.40;;;2.20;;
63193;SDS011;49289;51.670;5.624;2023-03-14T03:14:23;11.10;;;2.40;;
63193;SDS011;49289;51.670;5.624;2023-03-14T03:16:12;6.60;;;1.70;;
63193;SDS011;49289;51.670;5.624;2023-03-14T03:17:59;8.50;;;2.20;;
63193;SDS011;49289;51.670;5.624;2023-03-14T03:19:46;8.80;;;1.80;;
63193;SDS011;49289;51.670;5.624;2023-03-14T03:21:33;11.30;;;1.90;;
63193;SDS011;49289;51.670;5.624;2023-03-14T03:23:20;8.90;;;1.80;;
63193;SDS011;49289;51.670;5.624;2023-03-14T03:25:07;6.60;;;1.70;;
63193;SDS011;49289;51.670;5.624;2023-03-14T03:26:55;8.40;;;1.90;;
63193;SDS011;49289;51.670;5.624;2023-03-14T03:28:43;7.70;;;2.00;;
63193;SDS011;49289;51.670;5.624;2023-03-14T03:30:31;9.60;;;1.80;;
63193;SDS011;49289;51.670;5.624;2023-03-14T03:32:19;7.30;;;2.00;;
63193;SDS011;49289;51.670;5.624;2023-03-14T03:34:06;7.70;;;1.90;;
63193;SDS011;49289;51.670;5.624;2023-03-14T03:35:53;8.40;;;2.00;;
63193;SDS011;49289;51.670;5.624;2023-03-14T03:37:41;6.70;;;1.90;;
63193;SDS011;49289;51.670;5.624;2023-03-14T03:39:30;6.50;;;1.60;;
63193;SDS011;49289;51.670;5.624;2023-03-14T03:41:18;7.10;;;1.70;;
63193;SDS011;49289;51.670;5.624;2023-03-14T03:43:06;7.10;;;2.10;;
63193;SDS011;49289;51.670;5.624;2023-03-14T03:44:53;7.70;;;1.80;;
63193;SDS011;49289;51.670;5.624;2023-03-14T03:46:41;8.30;;;1.80;;
63193;SDS011;49289;51.670;5.624;2023-03-14T03:48:30;7.40;;;1.80;;
63193;SDS011;49289;51.670;5.624;2023-03-14T03:50:17;6.00;;;1.80;;
63193;SDS011;49289;51.670;5.624;2023-03-14T03:52:05;9.00;;;1.80;;
63193;SDS011;49289;51.670;5.624;2023-03-14T03:53:52;6.40;;;1.50;;
63193;SDS011;49289;51.670;5.624;2023-03-14T03:55:39;7.30;;;2.30;;
63193;SDS011;49289;51.670;5.624;2023-03-14T03:57:26;8.10;;;1.80;;
63193;SDS011;49289;51.670;5.624;2023-03-14T03:59:13;6.40;;;2.00;;
63193;SDS011;49289;51.670;5.624;2023-03-14T04:01:01;7.90;;;2.10;;
63193;SDS011;49289;51.670;5.624;2023-03-14T04:02:48;7.30;;;1.60;;
63193;SDS011;49289;51.670;5.624;2023-03-14T04:04:35;6.00;;;1.50;;
63193;SDS011;49289;51.670;5.624;2023-03-14T04:06:23;5.60;;;1.50;;
63193;SDS011;49289;51.670;5.624;2023-03-14T04:08:12;7.50;;;1.80;;
63193;SDS011;49289;51.670;5.624;2023-03-14T04:10:00;8.50;;;1.80;;
63193;SDS011;49289;51.670;5.624;2023-03-14T04:11:48;8.40;;;1.70;;
63193;SDS011;49289;51.670;5.624;2023-03-14T04:13:35;4.60;;;1.50;;
63193;SDS011;49289;51.670;5.624;2023-03-14T04:15:23;5.90;;;1.80;;
63193;SDS011;49289;51.670;5.624;2023-03-14T04:17:10;5.20;;;1.60;;
63193;SDS011;49289;51.670;5.624;2023-03-14T04:18:57;6.70;;;1.80;;
63193;SDS011;49289;51.670;5.624;2023-03-14T04:20:44;4.80;;;1.60;;
63193;SDS011;49289;51.670;5.624;2023-03-14T04:22:31;7.80;;;2.00;;
63193;SDS011;49289;51.670;5.624;2023-03-14T04:24:18;6.60;;;1.60;;
63193;SDS011;49289;51.670;5.624;2023-03-14T04:26:05;5.60;;;1.40;;
63193;SDS011;49289;51.670;5.624;2023-03-14T04:27:52;6.20;;;2.30;;
63193;SDS011;49289;51.670;5.624;2023-03-14T04:29:40;5.80;;;1.30;;
63193;SDS011;49289;51.670;5.624;2023-03-14T04:31:28;6.90;;;1.70;;
63193;SDS011;49289;51.670;5.624;2023-03-14T04:33:16;5.10;;;1.50;;
63193;SDS011;49289;51.670;5.624;2023-03-14T04:35:04;6.20;;;1.50;;
63193;SDS011;49289;51.670;5.624;2023-03-14T04:36:52;4.70;;;1.50;;
63193;SDS011;49289;51.670;5.624;2023-03-14T04:38:40;4.90;;;1.60;;
63193;SDS011;49289;51.670;5.624;2023-03-14T04:40:27;4.90;;;1.50;;
63193;SDS011;49289;51.670;5.624;2023-03-14T04:42:15;4.30;;;1.40;;
63193;SDS011;49289;51.670;5.624;2023-03-14T04:44:03;5.40;;;1.50;;
63193;SDS011;49289;51.670;5.624;2023-03-14T04:45:52;5.80;;;1.40;;
63193;SDS011;49289;51.670;5.624;2023-03-14T04:47:39;4.40;;;1.30;;
63193;SDS011;49289;51.670;5.624;2023-03-14T04:49:28;6.50;;;1.50;;
63193;SDS011;49289;51.670;5.624;2023-03-14T04:51:15;6.80;;;1.60;;
63193;SDS011;49289;51.670;5.624;2023-03-14T04:53:03;5.70;;;1.40;;
63193;SDS011;49289;51.670;5.624;2023-03-14T04:54:50;7.80;;;1.70;;
63193;SDS011;49289;51.670;5.624;2023-03-14T04:56:38;5.20;;;1.60;;
63193;SDS011;49289;51.670;5.624;2023-03-14T04:58:26;4.30;;;1.70;;
63193;SDS011;49289;51.670;5.624;2023-03-14T05:00:15;4.80;;;1.70;;
63193;SDS011;49289;51.670;5.624;2023-03-14T05:02:02;3.90;;;1.40;;
63193;SDS011;49289;51.670;5.624;2023-03-14T05:03:49;6.90;;;1.50;;
63193;SDS011;49289;51.670;5.624;2023-03-14T05:05:36;3.20;;;1.40;;
63193;SDS011;49289;51.670;5.624;2023-03-14T05:07:23;4.80;;;1.50;;
63193;SDS011;49289;51.670;5.624;2023-03-14T05:09:10;6.00;;;1.70;;
63193;SDS011;49289;51.670;5.624;2023-03-14T05:10:58;3.20;;;1.70;;
63193;SDS011;49289;51.670;5.624;2023-03-14T05:12:46;3.90;;;1.40;;
63193;SDS011;49289;51.670;5.624;2023-03-14T05:14:34;8.10;;;1.50;;
63193;SDS011;49289;51.670;5.624;2023-03-14T05:16:21;2.60;;;1.40;;
63193;SDS011;49289;51.670;5.624;2023-03-14T05:18:08;4.90;;;1.40;;
63193;SDS011;49289;51.670;5.624;2023-03-14T05:19:55;4.00;;;1.20;;
63193;SDS011;49289;51.670;5.624;2023-03-14T05:21:43;4.30;;;1.20;;
63193;SDS011;49289;51.670;5.624;2023-03-14T05:23:30;3.10;;;1.30;;
63193;SDS011;49289;51.670;5.624;2023-03-14T05:25:19;3.70;;;1.10;;
63193;SDS011;49289;51.670;5.624;2023-03-14T05:27:06;2.80;;;1.20;;
63193;SDS011;49289;51.670;5.624;2023-03-14T05:28:53;3.10;;;1.50;;
63193;SDS011;49289;51.670;5.624;2023-03-14T05:30:40;3.70;;;1.40;;
63193;SDS011;49289;51.670;5.624;2023-03-14T05:32:27;3.00;;;1.50;;
63193;SDS011;49289;51.670;5.624;2023-03-14T05:34:14;3.10;;;1.40;;
63193;SDS011;49289;51.670;5.624;2023-03-14T05:36:01;1.70;;;1.40;;
63193;SDS011;49289;51.670;5.624;2023-03-14T05:37:50;4.20;;;1.50;;
63193;SDS011;49289;51.670;5.624;2023-03-14T05:39:38;4.70;;;1.70;;
63193;SDS011;49289;51.670;5.624;2023-03-14T05:41:26;3.40;;;1.60;;
63193;SDS011;49289;51.670;5.624;2023-03-14T05:43:14;3.70;;;1.50;;
63193;SDS011;49289;51.670;5.624;2023-03-14T05:45:02;4.20;;;1.70;;
63193;SDS011;49289;51.670;5.624;2023-03-14T05:46:51;5.80;;;1.90;;
63193;SDS011;49289;51.670;5.624;2023-03-14T05:48:39;5.00;;;1.80;;
63193;SDS011;49289;51.670;5.624;2023-03-14T05:50:27;4.20;;;1.70;;
63193;SDS011;49289;51.670;5.624;2023-03-14T05:52:14;5.10;;;2.00;;
63193;SDS011;49289;51.670;5.624;2023-03-14T05:54:01;4.00;;;1.80;;
63193;SDS011;49289;51.670;5.624;2023-03-14T05:55:50;3.70;;;1.80;;
63193;SDS011;49289;51.670;5.624;2023-03-14T05:57:37;4.20;;;1.70;;
63193;SDS011;49289;51.670;5.624;2023-03-14T05:59:24;4.90;;;1.70;;
63193;SDS011;49289;51.670;5.624;2023-03-14T06:01:11;3.10;;;1.80;;
63193;SDS011;49289;51.670;5.624;2023-03-14T06:03:00;4.50;;;2.00;;
63193;SDS011;49289;51.670;5.624;2023-03-14T06:04:48;5.10;;;2.00;;
63193;SDS011;49289;51.670;5.624;2023-03-14T06:06:35;4.70;;;2.50;;
63193;SDS011;49289;51.670;5.624;2023-03-14T06:08:22;5.00;;;2.00;;
63193;SDS011;49289;51.670;5.624;2023-03-14T06:10:10;6.30;;;2.40;;
63193;SDS011;49289;51.670;5.624;2023-03-14T06:11:58;4.80;;;2.20;;
63193;SDS011;49289;51.670;5.624;2023-03-14T06:13:46;3.80;;;2.10;;
63193;SDS011;49289;51.670;5.624;2023-03-14T06:15:34;5.10;;;2.30;;
63193;SDS011;49289;51.670;5.624;2023-03-14T06:17:21;7.50;;;2.60;;
63193;SDS011;49289;51.670;5.624;2023-03-14T06:19:08;4.00;;;2.00;;
63193;SDS011;49289;51.670;5.624;2023-03-14T06:20:55;5.40;;;2.20;;
63193;SDS011;49289;51.670;5.624;2023-03-14T06:22:42;5.60;;;2.20;;
63193;SDS011;49289;51.670;5.624;2023-03-14T06:24:30;5.10;;;2.20;;
63193;SDS011;49289;51.670;5.624;2023-03-14T06:26:18;3.60;;;2.30;;
63193;SDS011;49289;51.670;5.624;2023-03-14T06:28:07;5.20;;;2.30;;
63193;SDS011;49289;51.670;5.624;2023-03-14T06:29:54;5.50;;;2.20;;
63193;SDS011;49289;51.670;5.624;2023-03-14T06:31:43;3.70;;;2.20;;
63193;SDS011;49289;51.670;5.624;2023-03-14T06:33:31;5.20;;;2.60;;
63193;SDS011;49289;51.670;5.624;2023-03-14T06:35:19;3.20;;;2.00;;
63193;SDS011;49289;51.670;5.624;2023-03-14T06:37:06;3.70;;;2.20;;
63193;SDS011;49289;51.670;5.624;2023-03-14T06:38:53;5.80;;;2.70;;
63193;SDS011;49289;51.670;5.624;2023-03-14T06:40:40;5.30;;;2.50;;
63193;SDS011;49289;51.670;5.624;2023-03-14T06:42:27;5.60;;;2.40;;
63193;SDS011;49289;51.670;5.624;2023-03-14T06:44:14;4.40;;;2.60;;
63193;SDS011;49289;51.670;5.624;2023-03-14T06:46:03;3.60;;;2.40;;
63193;SDS011;49289;51.670;5.624;2023-03-14T06:47:50;4.50;;;2.30;;
63193;SDS011;49289;51.670;5.624;2023-03-14T06:49:37;5.00;;;2.60;;
63193;SDS011;49289;51.670;5.624;2023-03-14T06:51:25;6.00;;;2.90;;
63193;SDS011;49289;51.670;5.624;2023-03-14T06:53:15;4.00;;;2.90;;
63193;SDS011;49289;51.670;5.624;2023-03-14T06:55:03;5.90;;;3.10;;
63193;SDS011;49289;51.670;5.624;2023-03-14T06:56:51;6.50;;;3.30;;
63193;SDS011;49289;51.670;5.624;2023-03-14T06:58:38;6.70;;;3.20;;
63193;SDS011;49289;51.670;5.624;2023-03-14T07:00:25;4.80;;;3.30;;
63193;SDS011;49289;51.670;5.624;2023-03-14T07:02:14;7.30;;;3.30;;
63193;SDS011;49289;51.670;5.624;2023-03-14T07:04:01;8.20;;;3.50;;
63193;SDS011;49289;51.670;5.624;2023-03-14T07:05:48;6.90;;;3.50;;
63193;SDS011;49289;51.670;5.624;2023-03-14T07:07:35;6.60;;;3.50;;
63193;SDS011;49289;51.670;5.624;2023-03-14T07:09:22;7.30;;;3.60;;
63193;SDS011;49289;51.670;5.624;2023-03-14T07:11:09;7.00;;;3.50;;
63193;SDS011;49289;51.670;5.624;2023-03-14T07:12:57;6.70;;;3.80;;
63193;SDS011;49289;51.670;5.624;2023-03-14T07:14:44;6.50;;;4.30;;
63193;SDS011;49289;51.670;5.624;2023-03-14T07:16:32;8.40;;;4.30;;
63193;SDS011;49289;51.670;5.624;2023-03-14T07:18:21;6.70;;;4.20;;
63193;SDS011;49289;51.670;5.624;2023-03-14T07:20:09;8.90;;;4.50;;
63193;SDS011;49289;51.670;5.624;2023-03-14T07:21:57;10.20;;;4.60;;
63193;SDS011;49289;51.670;5.624;2023-03-14T07:23:45;7.60;;;4.60;;
63193;SDS011;49289;51.670;5.624;2023-03-14T07:25:34;8.00;;;4.50;;
63193;SDS011;49289;51.670;5.624;2023-03-14T07:27:22;9.20;;;5.00;;
63193;SDS011;49289;51.670;5.624;2023-03-14T07:29:10;8.00;;;4.60;;
63193;SDS011;49289;51.670;5.624;2023-03-14T07:30:58;7.90;;;4.10;;
63193;SDS011;49289;51.670;5.624;2023-03-14T07:32:45;0.10;;;0.10;;
63193;SDS011;49289;51.670;5.624;2023-03-14T07:34:33;0.10;;;0.10;;
63193;SDS011;49289;51.670;5.624;2023-03-14T07:36:20;0.20;;;0.20;;
63193;SDS011;49289;51.670;5.624;2023-03-14T07:38:08;0.30;;;0.30;;
63193;SDS011;49289;51.670;5.624;2023-03-14T07:39:56;0.30;;;0.30;;
63193;SDS011;49289;51.670;5.624;2023-03-14T07:41:44;0.30;;;0.30;;
63193;SDS011;49289;51.670;5.624;2023-03-14T07:43:32;0.20;;;0.20;;
63193;SDS011;49289;51.670;5.624;2023-03-14T07:45:20;0.10;;;0.10;;
63193;SDS011;49289;51.670;5.624;2023-03-14T07:47:08;0.20;;;0.20;;
63193;SDS011;49289;51.670;5.624;2023-03-14T07:48:56;0.30;;;0.30;;
63193;SDS011;49289;51.670;5.624;2023-03-14T07:50:44;0.20;;;0.20;;
63193;SDS011;49289;51.670;5.624;2023-03-14T07:52:33;0.20;;;0.20;;
63193;SDS011;49289;51.670;5.624;2023-03-14T07:54:20;0.10;;;0.10;;
63193;SDS011;49289;51.670;5.624;2023-03-14T07:56:07;0.20;;;0.20;;
63193;SDS011;49289;51.670;5.624;2023-03-14T07:57:54;0.30;;;0.30;;
63193;SDS011;49289;51.670;5.624;2023-03-14T07:59:41;0.30;;;0.30;;
63193;SDS011;49289;51.670;5.624;2023-03-14T08:01:28;0.30;;;0.30;;
63193;SDS011;49289;51.670;5.624;2023-03-14T08:03:15;0.10;;;0.10;;
63193;SDS011;49289;51.670;5.624;2023-03-14T08:05:02;0.20;;;0.20;;
63193;SDS011;49289;51.670;5.624;2023-03-14T08:06:51;0.20;;;0.20;;
63193;SDS011;49289;51.670;5.624;2023-03-14T08:08:38;0.20;;;0.20;;
63193;SDS011;49289;51.670;5.624;2023-03-14T08:10:27;0.30;;;0.30;;
63193;SDS011;49289;51.670;5.624;2023-03-14T08:12:14;0.10;;;0.10;;
63193;SDS011;49289;51.670;5.624;2023-03-14T08:14:01;0.10;;;0.10;;
63193;SDS011;49289;51.670;5.624;2023-03-14T08:15:48;0.20;;;0.20;;
63193;SDS011;49289;51.670;5.624;2023-03-14T08:17:35;0.30;;;0.30;;
63193;SDS011;49289;51.670;5.624;2023-03-14T08:19:22;1.10;;;0.70;;
63193;SDS011;49289;51.670;5.624;2023-03-14T08:21:10;0.20;;;0.20;;
63193;SDS011;49289;51.670;5.624;2023-03-14T08:22:58;0.20;;;0.20;;
63193;SDS011;49289;51.670;5.624;2023-03-14T08:24:46;0.30;;;0.30;;
63193;SDS011;49289;51.670;5.624;2023-03-14T08:26:33;0.20;;;0.20;;
63193;SDS011;49289;51.670;5.624;2023-03-14T08:28:22;0.20;;;0.20;;
63193;SDS011;49289;51.670;5.624;2023-03-14T08:30:11;0.10;;;0.10;;
63193;SDS011;49289;51.670;5.624;2023-03-14T08:31:59;0.20;;;0.20;;
63193;SDS011;49289;51.670;5.624;2023-03-14T08:33:47;0.40;;;0.40;;
63193;SDS011;49289;51.670;5.624;2023-03-14T08:35:35;0.30;;;0.30;;
63193;SDS011;49289;51.670;5.624;2023-03-14T08:37:22;0.20;;;0.20;;
63193;SDS011;49289;51.670;5.624;2023-03-14T08:39:09;0.10;;;0.10;;
63193;SDS011;49289;51.670;5.624;2023-03-14T08:41:01;0.20;;;0.20;;
63193;SDS011;49289;51.670;5.624;2023-03-14T08:42:49;0.20;;;0.20;;
63193;SDS011;49289;51.670;5.624;2023-03-14T08:44:37;0.30;;;0.30;;
63193;SDS011;49289;51.670;5.624;2023-03-14T08:46:25;0.30;;;0.30;;
63193;SDS011;49289;51.670;5.624;2023-03-14T08:48:13;0.20;;;0.20;;
63193;SDS011;49289;51.670;5.624;2023-03-14T08:50:01;3.30;;;0.50;;
63193;SDS011;49289;51.670;5.624;2023-03-14T08:51:50;0.20;;;0.20;;
63193;SDS011;49289;51.670;5.624;2023-03-14T08:53:38;0.30;;;0.30;;
63193;SDS011;49289;51.670;5.624;2023-03-14T08:55:25;0.30;;;0.30;;
63193;SDS011;49289;51.670;5.624;2023-03-14T08:57:13;0.20;;;0.20;;
63193;SDS011;49289;51.670;5.624;2023-03-14T08:59:01;0.10;;;0.10;;
63193;SDS011;49289;51.670;5.624;2023-03-14T09:00:49;0.20;;;0.20;;
63193;SDS011;49289;51.670;5.624;2023-03-14T09:02:37;0.20;;;0.20;;
63193;SDS011;49289;51.670;5.624;2023-03-14T09:04:25;0.30;;;0.30;;
63193;SDS011;49289;51.670;5.624;2023-03-14T09:06:13;0.30;;;0.30;;
63193;SDS011;49289;51.670;5.624;2023-03-14T09:08:01;0.20;;;0.20;;
63193;SDS011;49289;51.670;5.624;2023-03-14T09:09:50;0.10;;;0.10;;
63193;SDS011;49289;51.670;5.624;2023-03-14T09:11:37;0.30;;;0.30;;
63193;SDS011;49289;51.670;5.624;2023-03-14T09:13:25;0.30;;;0.30;;
63193;SDS011;49289;51.670;5.624;2023-03-14T09:15:14;0.30;;;0.30;;
63193;SDS011;49289;51.670;5.624;2023-03-14T09:17:02;0.10;;;0.10;;
63193;SDS011;49289;51.670;5.624;2023-03-14T09:18:48;0.20;;;0.20;;
63193;SDS011;49289;51.670;5.624;2023-03-14T09:20:35;0.30;;;0.30;;
63193;SDS011;49289;51.670;5.624;2023-03-14T09:22:22;0.30;;;0.30;;
63193;SDS011;49289;51.670;5.624;2023-03-14T09:24:09;0.40;;;0.40;;
63193;SDS011;49289;51.670;5.624;2023-03-14T09:26:00;0.20;;;0.20;;
63193;SDS011;49289;51.670;5.624;2023-03-14T09:27:46;0.20;;;0.20;;
63193;SDS011;49289;51.670;5.624;2023-03-14T09:29:34;0.30;;;0.30;;
63193;SDS011;49289;51.670;5.624;2023-03-14T09:31:22;0.30;;;0.30;;
63193;SDS011;49289;51.670;5.624;2023-03-14T09:33:10;0.20;;;0.20;;
63193;SDS011;49289;51.670;5.624;2023-03-14T09:34:57;0.20;;;0.20;;
63193;SDS011;49289;51.670;5.624;2023-03-14T09:36:44;0.30;;;0.30;;
63193;SDS011;49289;51.670;5.624;2023-03-14T09:38:32;0.20;;;0.20;;
63193;SDS011;49289;51.670;5.624;2023-03-14T09:40:20;0.20;;;0.20;;
63193;SDS011;49289;51.670;5.624;2023-03-14T09:42:11;0.20;;;0.20;;
63193;SDS011;49289;51.670;5.624;2023-03-14T09:43:58;0.10;;;0.10;;
63193;SDS011;49289;51.670;5.624;2023-03-14T09:45:47;0.20;;;0.20;;
63193;SDS011;49289;51.670;5.624;2023-03-14T09:47:34;0.20;;;0.20;;
63193;SDS011;49289;51.670;5.624;2023-03-14T09:49:23;0.90;;;0.90;;
63193;SDS011;49289;51.670;5.624;2023-03-14T09:51:11;0.20;;;0.20;;
63193;SDS011;49289;51.670;5.624;2023-03-14T09:52:59;0.30;;;0.30;;
63193;SDS011;49289;51.670;5.624;2023-03-14T09:54:46;0.20;;;0.20;;
63193;SDS011;49289;51.670;5.624;2023-03-14T09:56:33;0.20;;;0.20;;
63193;SDS011;49289;51.670;5.624;2023-03-14T09:58:22;0.10;;;0.10;;
63193;SDS011;49289;51.670;5.624;2023-03-14T10:00:10;0.20;;;0.20;;
63193;SDS011;49289;51.670;5.624;2023-03-14T10:01:58;0.20;;;0.20;;
63193;SDS011;49289;51.670;5.624;2023-03-14T10:03:46;0.20;;;0.20;;
63193;SDS011;49289;51.670;5.624;2023-03-14T10:05:34;0.30;;;0.30;;
63193;SDS011;49289;51.670;5.624;2023-03-14T10:07:24;0.20;;;0.20;;
63193;SDS011;49289;51.670;5.624;2023-03-14T10:09:14;0.10;;;0.10;;
63193;SDS011;49289;51.670;5.624;2023-03-14T10:11:02;0.20;;;0.20;;
63193;SDS011;49289;51.670;5.624;2023-03-14T10:12:55;0.20;;;0.20;;
63193;SDS011;49289;51.670;5.624;2023-03-14T10:14:44;0.20;;;0.20;;
63193;SDS011;49289;51.670;5.624;2023-03-14T10:16:34;0.20;;;0.20;;
63193;SDS011;49289;51.670;5.624;2023-03-14T10:18:22;0.20;;;0.20;;
63193;SDS011;49289;51.670;5.624;2023-03-14T10:20:14;1.00;;;0.60;;
63193;SDS011;49289;51.670;5.624;2023-03-14T10:22:14;0.40;;;0.40;;
63193;SDS011;49289;51.670;5.624;2023-03-14T10:24:16;0.20;;;0.20;;
63193;SDS011;49289;51.670;5.624;2023-03-14T10:26:07;0.30;;;0.30;;
63193;SDS011;49289;51.670;5.624;2023-03-14T10:27:54;0.20;;;0.20;;
63193;SDS011;49289;51.670;5.624;2023-03-14T10:29:50;0.10;;;0.10;;
63193;SDS011;49289;51.670;5.624;2023-03-14T10:31:45;0.10;;;0.10;;
63193;SDS011;49289;51.670;5.624;2023-03-14T10:33:35;0.30;;;0.30;;
63193;SDS011;49289;51.670;5.624;2023-03-14T10:35:24;0.30;;;0.30;;
63193;SDS011;49289;51.670;5.624;2023-03-14T10:37:16;0.30;;;0.30;;
63193;SDS011;49289;51.670;5.624;2023-03-14T10:39:04;0.20;;;0.20;;
63193;SDS011;49289;51.670;5.624;2023-03-14T10:41:05;0.10;;;0.10;;
63193;SDS011;49289;51.670;5.624;2023-03-14T10:42:58;0.20;;;0.20;;
63193;SDS011;49289;51.670;5.624;2023-03-14T10:44:45;0.20;;;0.20;;
63193;SDS011;49289;51.670;5.624;2023-03-14T10:46:33;0.30;;;0.30;;
63193;SDS011;49289;51.670;5.624;2023-03-14T10:48:30;0.20;;;0.20;;
63193;SDS011;49289;51.670;5.624;2023-03-14T10:50:25;0.10;;;0.10;;
63193;SDS011;49289;51.670;5.624;2023-03-14T10:52:18;0.20;;;0.20;;